Medina, Ohio
Current Conditions -  °F | °C
As of 7:51 PM on Sunday 23 Nov 2014 (Local Time) from KCLE Reporting Station
Light Rain Light Rain  
Wind Chill: 58°   Ceiling: 10000
Heat Index: 58°   Visibility: 10mi
Dew Point: 45°   Wind: 16mph
Humidity: 62%   Direction: 150°SSE
Pressure: 29.59"   Gusts: 23mph
Location:  41.14°N, 81.86°W
Report Text: KCLE 240051Z 15014G20KT 10SM -RA BKN100 OVC130 14/07 A2959 RMK AO2 PK WND 14026/0034 RAB32 SLP020 P0000 T01440072 $
Loading
Personal Weather Stations






























Interactive Weather Map New forecast layout! Learn more

10-Day Weather Forecast

Advertisements
Track Severe Weather on mobile